createdAt,value
2022-09-04T00:02:27.053Z,1.60
2022-09-04T00:05:30.257Z,1.80
2022-09-04T00:08:11.820Z,1.70
2022-09-04T00:10:45.987Z,1.55
2022-09-04T00:13:21.513Z,1.80
2022-09-04T00:15:57.277Z,1.88
2022-09-04T00:18:35.443Z,1.70
2022-09-04T00:21:14.347Z,1.50
2022-09-04T00:23:49.768Z,1.73
2022-09-04T00:26:44.350Z,1.60
2022-09-04T00:29:27.368Z,1.63
2022-09-04T00:32:03.569Z,1.50
2022-09-04T00:34:48.455Z,1.73
2022-09-04T00:37:21.200Z,1.65
2022-09-04T00:39:57.709Z,1.83
2022-09-04T00:42:40.789Z,1.50
2022-09-04T00:45:16.732Z,1.38
2022-09-04T00:48:08.293Z,1.30
2022-09-04T00:50:42.456Z,1.45
2022-09-04T00:53:21.657Z,1.48
2022-09-04T00:56:07.120Z,1.52
2022-09-04T00:58:51.296Z,1.38
2022-09-04T01:01:27.987Z,1.73
2022-09-04T01:04:00.302Z,1.42
2022-09-04T01:06:46.590Z,1.40
2022-09-04T01:09:24.886Z,1.35
2022-09-04T01:12:08.035Z,1.55
2022-09-04T01:14:53.112Z,1.40
2022-09-04T01:17:36.153Z,1.20
2022-09-04T01:20:40.792Z,1.58
2022-09-04T01:23:36.647Z,1.40
2022-09-04T01:26:16.113Z,1.45
2022-09-04T01:28:48.262Z,1.50
2022-09-04T01:31:23.828Z,1.60
2022-09-04T01:34:17.762Z,1.40
2022-09-04T01:36:50.264Z,1.40
2022-09-04T01:39:19.279Z,1.67
2022-09-04T01:41:54.101Z,1.50
2022-09-04T01:44:20.673Z,1.50
2022-09-04T01:47:04.472Z,1.40
2022-09-04T01:49:46.225Z,1.45
2022-09-04T01:55:12.643Z,1.48
2022-09-04T01:58:17.044Z,1.80
2022-09-04T02:01:11.100Z,1.30
2022-09-04T02:04:00.569Z,1.33
2022-09-04T02:06:43.723Z,1.60
2022-09-04T02:09:10.937Z,1.85
2022-09-04T02:11:42.319Z,1.83
2022-09-04T02:14:40.146Z,1.90
2022-09-04T02:17:36.251Z,1.30
2022-09-04T02:20:17.815Z,1.52
2022-09-04T02:23:17.098Z,1.60
2022-09-04T02:25:56.085Z,1.40
2022-09-04T02:28:32.049Z,1.60
2022-09-04T02:31:05.776Z,1.70
2022-09-04T02:33:38.301Z,1.70
2022-09-04T02:36:07.937Z,1.50
2022-09-04T02:38:46.639Z,1.40
2022-09-04T02:41:39.816Z,1.45
2022-09-04T02:44:19.096Z,1.58
2022-09-04T02:47:07.341Z,1.70
2022-09-04T02:49:55.458Z,1.55
2022-09-04T02:52:40.831Z,1.63
2022-09-04T02:55:45.806Z,2.00
2022-09-04T02:58:25.946Z,1.70
2022-09-04T03:01:43.623Z,1.48
2022-09-04T03:04:17.801Z,1.70
2022-09-04T03:06:50.614Z,1.70
2022-09-04T03:09:40.107Z,1.80
2022-09-04T03:12:36.134Z,1.98
2022-09-04T03:15:45.400Z,1.77
2022-09-04T03:18:17.122Z,1.58
2022-09-04T03:20:49.851Z,1.95
2022-09-04T03:23:35.352Z,1.95
2022-09-04T03:26:11.977Z,1.95
2022-09-04T03:28:56.528Z,1.77
2022-09-04T03:31:33.572Z,2.03
2022-09-04T03:34:03.203Z,2.20
2022-09-04T03:36:43.715Z,2.05
2022-09-04T03:39:18.479Z,1.95
2022-09-04T03:42:26.079Z,1.80
2022-09-04T03:45:08.803Z,1.80
2022-09-04T03:50:26.509Z,1.90
2022-09-04T03:53:13.251Z,1.90
2022-09-04T03:56:01.475Z,2.00
2022-09-04T03:58:38.209Z,1.90
2022-09-04T04:01:34.283Z,1.85
2022-09-04T04:04:34.413Z,2.00
2022-09-04T04:07:22.162Z,1.80
2022-09-04T04:10:03.847Z,1.83
2022-09-04T04:15:42.139Z,1.83
2022-09-04T04:18:13.397Z,1.70
2022-09-04T04:20:58.172Z,1.83
2022-09-04T04:24:06.264Z,1.70
2022-09-04T04:26:54.721Z,1.50
2022-09-04T04:29:38.850Z,1.70
2022-09-04T04:32:26.916Z,1.70
2022-09-04T04:35:16.860Z,2.05
2022-09-04T04:38:20.305Z,1.70
2022-09-04T04:41:14.637Z,1.63
2022-09-04T04:43:49.775Z,1.70
2022-09-04T04:46:42.991Z,1.70
2022-09-04T04:49:22.543Z,1.38
2022-09-04T04:52:08.870Z,1.73
2022-09-04T04:54:54.181Z,1.85
2022-09-04T04:57:26.886Z,1.50
2022-09-04T05:00:27.389Z,1.60
2022-09-04T05:03:16.215Z,1.60
2022-09-04T05:05:55.229Z,1.60
2022-09-04T05:08:57.076Z,1.50
2022-09-04T05:11:59.189Z,1.50
2022-09-04T05:14:50.199Z,1.60
2022-09-04T05:17:25.073Z,1.67
2022-09-04T05:20:03.829Z,1.60
2022-09-04T05:22:46.396Z,1.60
2022-09-04T05:25:29.565Z,2.00
2022-09-04T05:28:17.333Z,1.45
2022-09-04T05:30:51.010Z,1.65
2022-09-04T05:33:29.800Z,1.60
2022-09-04T05:36:20.541Z,1.50
2022-09-04T05:39:00.381Z,1.55
2022-09-04T05:41:39.179Z,1.60
2022-09-04T05:44:36.981Z,1.60
2022-09-04T05:47:30.667Z,1.60
2022-09-04T05:50:26.422Z,1.50
2022-09-04T05:53:00.108Z,1.52
2022-09-04T05:55:31.970Z,1.60
2022-09-04T05:58:17.653Z,1.48
2022-09-04T06:00:53.262Z,1.60
2022-09-04T06:03:26.912Z,1.60
2022-09-04T06:06:22.824Z,1.70
2022-09-04T06:09:10.439Z,1.30
2022-09-04T06:11:45.614Z,1.88
2022-09-04T06:14:50.047Z,1.48
2022-09-04T06:17:32.787Z,1.70
2022-09-04T06:20:24.020Z,1.70
2022-09-04T06:23:03.250Z,1.67
2022-09-04T06:25:48.548Z,1.77
2022-09-04T06:28:22.637Z,1.80
2022-09-04T06:31:12.282Z,1.77
2022-09-04T06:34:00.504Z,1.50
2022-09-04T06:36:45.417Z,1.70
2022-09-04T06:39:35.206Z,1.90
2022-09-04T06:42:07.731Z,1.90
2022-09-04T06:45:20.897Z,2.40
2022-09-04T06:47:51.360Z,2.30
2022-09-04T06:50:46.775Z,2.42
2022-09-04T06:53:58.400Z,2.00
2022-09-04T06:56:31.314Z,2.00
2022-09-04T06:59:11.633Z,2.10
2022-09-04T07:02:02.966Z,2.20
2022-09-04T07:04:44.553Z,2.03
2022-09-04T07:07:24.575Z,2.00
2022-09-04T07:10:01.730Z,1.90
2022-09-04T07:12:37.575Z,2.00
2022-09-04T07:15:30.586Z,2.15
2022-09-04T07:18:03.217Z,1.75
2022-09-04T07:20:59.673Z,1.70
2022-09-04T07:23:48.059Z,1.70
2022-09-04T07:26:26.576Z,1.80
2022-09-04T07:29:23.782Z,2.03
2022-09-04T07:32:08.595Z,1.60
2022-09-04T07:34:46.618Z,2.03
2022-09-04T07:37:31.560Z,1.70
2022-09-04T07:40:08.281Z,1.60
2022-09-04T07:42:44.641Z,1.63
2022-09-04T07:45:22.369Z,1.50
2022-09-04T07:48:18.256Z,1.52
2022-09-04T07:51:03.753Z,1.55
2022-09-04T07:53:51.913Z,1.75
2022-09-04T07:56:54.858Z,1.70
2022-09-04T07:59:31.187Z,1.50
2022-09-04T08:02:09.719Z,1.50
2022-09-04T08:05:01.037Z,1.45
2022-09-04T08:07:33.596Z,1.55
2022-09-04T08:10:27.808Z,1.40
2022-09-04T08:13:14.072Z,1.35
2022-09-04T08:16:07.154Z,1.40
2022-09-04T08:19:01.497Z,1.30
2022-09-04T08:21:31.004Z,1.30
2022-09-04T08:24:35.064Z,1.45
2022-09-04T08:27:18.822Z,1.20
2022-09-04T08:29:48.109Z,1.40
2022-09-04T08:32:21.069Z,1.40
2022-09-04T08:35:21.541Z,1.23
2022-09-04T08:37:57.173Z,1.20
2022-09-04T08:40:26.581Z,1.30
2022-09-04T08:43:11.352Z,1.33
2022-09-04T08:46:16.820Z,1.25
2022-09-04T08:49:02.453Z,1.70
2022-09-04T08:51:42.858Z,1.42
2022-09-04T08:54:12.415Z,1.35
2022-09-04T08:56:50.139Z,1.70
2022-09-04T08:59:38.513Z,1.33
2022-09-04T09:02:13.952Z,1.73
2022-09-04T09:05:15.991Z,1.67
2022-09-04T09:08:16.241Z,1.65
2022-09-04T09:11:07.864Z,1.50
2022-09-04T09:13:50.898Z,1.73
2022-09-04T09:16:56.176Z,1.70
2022-09-04T09:19:56.823Z,1.88
2022-09-04T09:23:10.801Z,1.67
2022-09-04T09:26:06.577Z,2.00
2022-09-04T09:29:14.506Z,1.90
2022-09-04T09:31:53.170Z,1.75
2022-09-04T09:34:35.856Z,1.80
2022-09-04T09:37:08.683Z,1.88
2022-09-04T09:40:14.048Z,1.92
2022-09-04T09:42:59.976Z,1.98
2022-09-04T09:45:57.037Z,1.75
2022-09-04T09:49:05.188Z,2.13
2022-09-04T09:51:41.641Z,1.70
2022-09-04T09:54:30.021Z,2.00
2022-09-04T09:57:33.218Z,1.80
2022-09-04T10:00:18.180Z,1.70
2022-09-04T10:03:14.081Z,2.13
2022-09-04T10:06:15.067Z,1.75
2022-09-04T10:09:12.245Z,2.10
2022-09-04T10:11:41.740Z,1.58
2022-09-04T10:14:53.945Z,1.67
2022-09-04T10:17:42.263Z,2.28
2022-09-04T10:20:35.312Z,2.00
2022-09-04T10:23:16.412Z,1.88
2022-09-04T10:25:54.971Z,1.60
2022-09-04T10:28:40.816Z,1.70
2022-09-04T10:31:42.718Z,1.60
2022-09-04T10:34:54.388Z,1.60
2022-09-04T10:40:30.854Z,1.50
2022-09-04T10:43:35.024Z,1.48
2022-09-04T10:46:23.201Z,1.58
2022-09-04T10:49:14.739Z,1.60
2022-09-04T10:52:20.123Z,1.45
2022-09-04T10:55:18.834Z,1.65
2022-09-04T10:58:10.668Z,1.50
2022-09-04T11:01:03.392Z,1.50
2022-09-04T11:03:45.804Z,1.48
2022-09-04T11:06:30.653Z,1.40
2022-09-04T11:09:09.641Z,1.60
2022-09-04T11:11:52.839Z,1.42
2022-09-04T11:14:45.493Z,1.40
2022-09-04T11:17:21.072Z,1.25
2022-09-04T11:20:25.036Z,1.48
2022-09-04T11:22:54.726Z,1.30
2022-09-04T11:26:05.772Z,1.38
2022-09-04T11:28:47.794Z,1.77
2022-09-04T11:31:32.581Z,1.33
2022-09-04T11:34:34.702Z,1.50
2022-09-04T11:37:22.614Z,1.58
2022-09-04T11:40:08.920Z,1.30
2022-09-04T11:42:45.511Z,1.42
2022-09-04T11:45:44.549Z,1.30
2022-09-04T11:48:26.460Z,1.50
2022-09-04T11:51:40.556Z,1.60
2022-09-04T11:54:40.778Z,1.30
2022-09-04T11:57:16.272Z,1.40
2022-09-04T12:00:06.031Z,1.73
2022-09-04T12:02:42.004Z,1.65
2022-09-04T12:05:39.724Z,1.40
2022-09-04T12:08:18.133Z,1.30
2022-09-04T12:10:53.040Z,1.48
2022-09-04T12:13:48.905Z,1.58
2022-09-04T12:16:34.954Z,1.50
2022-09-04T12:19:21.264Z,1.52
2022-09-04T12:22:36.366Z,1.40
2022-09-04T12:25:17.671Z,1.80
2022-09-04T12:31:01.690Z,1.50
2022-09-04T12:33:37.075Z,1.80
2022-09-04T12:36:42.170Z,1.27
2022-09-04T12:39:41.889Z,1.33
2022-09-04T12:42:29.965Z,1.30
2022-09-04T12:45:15.192Z,1.20
2022-09-04T12:48:22.853Z,1.50
2022-09-04T12:50:55.628Z,1.33
2022-09-04T12:53:33.371Z,1.50
2022-09-04T12:56:03.208Z,1.30
2022-09-04T12:58:33.918Z,1.30
2022-09-04T13:01:00.550Z,1.50
2022-09-04T13:03:58.919Z,1.27
2022-09-04T13:06:53.406Z,1.40
2022-09-04T13:09:58.957Z,1.30
2022-09-04T13:12:37.417Z,1.60
2022-09-04T13:15:45.093Z,1.40
2022-09-04T13:18:26.646Z,1.42
2022-09-04T13:20:58.106Z,1.33
2022-09-04T13:23:38.962Z,1.40
2022-09-04T13:26:29.756Z,1.42
2022-09-04T13:29:16.907Z,1.50
2022-09-04T13:31:50.300Z,1.23
2022-09-04T13:34:37.305Z,1.40
2022-09-04T13:37:23.437Z,1.20
2022-09-04T13:40:01.908Z,1.30
2022-09-04T13:43:05.244Z,1.33
2022-09-04T13:45:40.810Z,1.40
2022-09-04T13:48:13.419Z,1.20
2022-09-04T13:51:13.680Z,1.25
2022-09-04T13:53:52.893Z,1.40
2022-09-04T13:56:26.416Z,1.40
2022-09-04T13:58:58.413Z,1.20
2022-09-04T14:01:29.622Z,1.20
2022-09-04T14:04:04.765Z,1.23
2022-09-04T14:06:32.586Z,1.27
2022-09-04T14:09:05.520Z,1.30
2022-09-04T14:12:01.192Z,1.30
2022-09-04T14:14:48.534Z,1.00
2022-09-04T14:17:27.139Z,1.20
2022-09-04T14:20:34.443Z,1.25
2022-09-04T14:23:12.712Z,1.33
2022-09-04T14:26:13.563Z,1.17
2022-09-04T14:28:52.235Z,1.17
2022-09-04T14:31:38.449Z,1.20
2022-09-04T14:34:42.707Z,1.30
2022-09-04T14:37:24.407Z,1.23
2022-09-04T14:40:03.633Z,1.30
2022-09-04T14:42:58.100Z,1.17
2022-09-04T14:45:32.566Z,1.13
2022-09-04T14:48:03.756Z,1.42
2022-09-04T14:53:06.497Z,1.30
2022-09-04T14:55:35.229Z,1.15
2022-09-04T14:58:19.797Z,1.25
2022-09-04T15:00:57.224Z,1.20
2022-09-04T15:03:55.877Z,1.30
2022-09-04T15:07:12.361Z,1.30
2022-09-04T15:09:48.456Z,1.17
2022-09-04T15:12:25.987Z,1.00
2022-09-04T15:14:59.154Z,1.00
2022-09-04T15:17:28.773Z,1.10
2022-09-04T15:20:00.281Z,1.20
2022-09-04T15:22:47.599Z,1.25
2022-09-04T15:25:18.263Z,1.23
2022-09-04T15:28:01.505Z,1.13
2022-09-04T15:30:39.731Z,1.27
2022-09-04T15:33:12.624Z,1.00
2022-09-04T15:35:40.704Z,1.10
2022-09-04T15:38:25.347Z,0.90
2022-09-04T15:41:15.589Z,1.00
2022-09-04T15:43:51.752Z,1.00
2022-09-04T15:46:25.181Z,0.93
2022-09-04T15:49:00.098Z,1.25
2022-09-04T15:51:50.237Z,1.30
2022-09-04T15:54:22.699Z,1.13
2022-09-04T15:56:52.224Z,1.20
2022-09-04T15:59:23.853Z,1.10
2022-09-04T16:02:13.333Z,1.27
2022-09-04T16:04:44.922Z,1.20
2022-09-04T16:07:20.402Z,1.10
2022-09-04T16:09:51.834Z,1.25
2022-09-04T16:12:30.751Z,1.20
2022-09-04T16:15:03.363Z,1.20
2022-09-04T16:17:32.599Z,1.20
2022-09-04T16:20:11.722Z,1.20
2022-09-04T16:22:43.865Z,1.33
2022-09-04T16:25:23.562Z,1.30
2022-09-04T16:28:02.431Z,1.30
2022-09-04T16:30:33.520Z,1.40
2022-09-04T16:33:00.636Z,1.17
2022-09-04T16:35:28.874Z,1.30
2022-09-04T16:38:40.840Z,1.33
2022-09-04T16:41:25.628Z,1.40
2022-09-04T16:44:11.110Z,1.30
2022-09-04T16:46:40.121Z,1.02
2022-09-04T16:49:19.744Z,1.17
2022-09-04T16:51:57.940Z,1.00
2022-09-04T16:54:37.499Z,1.10
2022-09-04T16:57:14.850Z,1.52
2022-09-04T16:59:43.553Z,1.10
2022-09-04T17:02:36.345Z,1.30
2022-09-04T17:05:35.274Z,1.17
2022-09-04T17:08:27.210Z,1.20
2022-09-04T17:11:14.725Z,1.00
2022-09-04T17:13:59.190Z,1.00
2022-09-04T17:16:52.523Z,1.10
2022-09-04T17:19:19.483Z,0.82
2022-09-04T17:28:59.337Z,1.08
2022-09-04T17:29:02.054Z,0.90
2022-09-04T17:29:17.347Z,0.90
2022-09-04T17:31:13.602Z,1.10
2022-09-04T17:40:16.399Z,1.10
2022-09-04T17:40:51.462Z,1.10
2022-09-04T17:40:54.608Z,1.00
2022-09-04T17:43:22.074Z,1.20
2022-09-04T17:45:59.447Z,1.00
2022-09-04T17:48:41.319Z,0.90
2022-09-04T17:51:15.825Z,1.00
2022-09-04T17:53:47.476Z,0.98
2022-09-04T17:56:20.612Z,1.17
2022-09-04T17:59:11.882Z,1.20
2022-09-04T18:01:51.977Z,1.20
2022-09-04T18:04:22.571Z,1.20
2022-09-04T18:06:58.400Z,1.27
2022-09-04T18:09:32.058Z,1.48
2022-09-04T18:12:11.401Z,1.20
2022-09-04T18:14:43.024Z,1.23
2022-09-04T18:17:20.127Z,1.20
2022-09-04T18:20:17.349Z,1.20
2022-09-04T18:23:06.209Z,1.13
2022-09-04T18:25:51.177Z,1.50
2022-09-04T18:28:27.219Z,1.00
2022-09-04T18:37:12.112Z,1.10
2022-09-04T18:37:25.652Z,1.20
2022-09-04T18:37:44.068Z,1.20
2022-09-04T18:41:12.835Z,1.08
2022-09-04T18:50:23.054Z,0.90
2022-09-04T18:50:30.654Z,1.25
2022-09-04T18:51:06.965Z,1.30
2022-09-04T18:52:00.530Z,1.38
2022-09-04T18:54:39.597Z,1.40
2022-09-04T18:57:20.515Z,1.30
2022-09-04T18:59:53.742Z,1.23
2022-09-04T19:02:42.428Z,1.35
2022-09-04T19:05:18.249Z,1.45
2022-09-04T19:07:47.977Z,1.50
2022-09-04T19:10:20.654Z,1.40
2022-09-04T19:12:50.142Z,1.50
2022-09-04T19:15:51.915Z,1.60
2022-09-04T19:21:08.115Z,1.80
2022-09-04T19:23:40.930Z,1.50
2022-09-04T19:26:18.049Z,1.60
2022-09-04T19:28:53.228Z,1.60
2022-09-04T19:31:29.965Z,1.65
2022-09-04T19:33:59.485Z,1.70
2022-09-04T19:36:37.293Z,1.70
2022-09-04T19:44:55.104Z,1.70
2022-09-04T19:46:00.638Z,2.00
2022-09-04T19:46:13.432Z,1.80
2022-09-04T19:48:20.965Z,1.73
2022-09-04T19:53:21.496Z,2.17
2022-09-04T19:53:52.874Z,1.90
2022-09-04T19:56:30.872Z,2.10
2022-09-04T19:59:23.199Z,1.90
2022-09-04T20:02:02.881Z,1.90
2022-09-04T20:04:41.788Z,1.83
2022-09-04T20:07:11.192Z,1.90
2022-09-04T20:09:51.825Z,1.80
2022-09-04T20:12:44.191Z,1.60
2022-09-04T20:15:22.259Z,1.90
2022-09-04T20:18:08.574Z,1.95
2022-09-04T20:20:46.468Z,1.70
2022-09-04T20:23:34.904Z,1.60
2022-09-04T20:26:25.802Z,1.90
2022-09-04T20:29:08.461Z,1.60
2022-09-04T20:31:45.646Z,1.80
2022-09-04T20:34:20.815Z,1.52
2022-09-04T20:36:54.121Z,1.67
2022-09-04T20:39:28.324Z,1.58
2022-09-04T20:42:02.265Z,1.65
2022-09-04T20:46:28.387Z,2.10
2022-09-04T20:52:49.921Z,1.88
2022-09-04T20:52:54.192Z,2.00
2022-09-04T20:53:50.269Z,1.90
2022-09-04T20:57:18.431Z,1.73
2022-09-04T21:03:10.465Z,1.75
2022-09-04T21:03:22.838Z,1.90
2022-09-04T21:05:39.069Z,2.00
2022-09-04T21:08:13.663Z,1.80
2022-09-04T21:10:55.237Z,1.90
2022-09-04T21:16:11.684Z,1.95
2022-09-04T21:18:45.887Z,1.73
2022-09-04T21:22:01.168Z,2.00
2022-09-04T21:24:39.909Z,1.70
2022-09-04T21:27:09.328Z,2.00
2022-09-04T21:29:59.294Z,2.00
2022-09-04T21:32:30.294Z,1.63
2022-09-04T21:35:15.654Z,1.90
2022-09-04T21:37:55.935Z,1.80
2022-09-04T21:40:50.390Z,2.10
2022-09-04T21:43:21.821Z,2.22
2022-09-04T21:46:13.825Z,1.98
2022-09-04T21:49:07.600Z,1.90
2022-09-04T21:51:51.549Z,1.90
2022-09-04T21:59:43.867Z,1.98
2022-09-04T22:02:37.963Z,1.88
2022-09-04T22:02:40.986Z,2.30
2022-09-04T22:04:19.525Z,2.00
2022-09-04T22:10:26.182Z,2.10
2022-09-04T22:13:29.475Z,2.00
2022-09-04T22:13:48.015Z,2.00
2022-09-04T22:16:15.670Z,2.10
2022-09-04T22:19:16.390Z,1.95
2022-09-04T22:22:04.111Z,2.00
2022-09-04T22:24:48.867Z,1.88
2022-09-04T22:27:37.623Z,2.00
2022-09-04T22:30:22.386Z,1.88
2022-09-04T22:32:58.115Z,2.25
2022-09-04T22:35:36.138Z,2.10
2022-09-04T22:38:08.838Z,2.00
2022-09-04T22:40:57.033Z,2.20
2022-09-04T22:43:24.779Z,2.15
2022-09-04T22:46:10.126Z,2.00
2022-09-04T22:49:14.208Z,2.05
2022-09-04T22:51:43.570Z,2.10
2022-09-04T22:54:39.276Z,2.10
2022-09-04T22:57:24.143Z,2.03
2022-09-04T23:00:26.129Z,2.20
2022-09-04T23:03:32.770Z,1.90
2022-09-04T23:07:36.755Z,2.00
2022-09-04T23:13:44.116Z,1.70
2022-09-04T23:14:01.391Z,2.00
2022-09-04T23:15:59.353Z,1.95
2022-09-04T23:21:26.331Z,1.77
2022-09-04T23:26:38.916Z,1.92
2022-09-04T23:26:50.902Z,1.98
2022-09-04T23:28:27.792Z,2.10
2022-09-04T23:31:27.292Z,1.98
2022-09-04T23:33:55.829Z,2.00
2022-09-04T23:36:49.959Z,1.77
2022-09-04T23:39:33.116Z,1.90
2022-09-04T23:42:12.555Z,2.00
2022-09-04T23:44:39.026Z,2.00
2022-09-04T23:47:48.214Z,2.10
2022-09-04T23:50:53.233Z,2.10
2022-09-04T23:53:56.959Z,2.22
2022-09-04T23:56:27.358Z,2.30
2022-09-04T23:59:22.263Z,2.08
